CheckWX is a tool to help pilots better visualize weather data.  It is not intended as a substitute for an official pre-flight weather briefing.

19:42:48 UTC

06C METAR
Schaumburg Regional Airport
Chicago/Schaumburg, Illinois, USA
Current

8 mins ago

K06C 211935Z AUTO 19011G19KT 160V230 10SM SCT025 BKN035 OVC045 26/21 A3005 RMK AO2 T02600214
Observed
Sep-21 @ 19:35 UTC
Wind
  • 190° at 11 KTS
  • Gusting to 19 KTS
Visibility
10 SM
Flight Rules
VFR
Cloud Levels
  • Scattered at 2,500' AGL
  • Broken at 3,500' AGL
  • Overcast at 4,500' AGL
Temperature
26°C / 79°F
Dewpoint
21°C / 70°F
Humidity
74%
Altimeter
30.05" Hg
Pressure
1017.62 hPa
Previous

28 mins ago

K06C 211915Z AUTO 20010G19KT 10SM SCT025 BKN037 OVC045 26/22 A3005 RMK AO2 T02620216
Observed
Sep-21 @ 19:15 UTC
Wind
  • 200° at 10 KTS
  • Gusting to 19 KTS
Visibility
10 SM
Flight Rules
VFR
Cloud Levels
  • Scattered at 2,500' AGL
  • Broken at 3,700' AGL
  • Overcast at 4,500' AGL
Temperature
26°C / 79°F
Dewpoint
22°C / 72°F
Humidity
79%
Altimeter
30.05" Hg
Pressure
1017.62 hPa
Previous

48 mins ago

K06C 211855Z AUTO 20005G17KT 10SM OVC037 26/22 A3006 RMK AO2 T02580216
Observed
Sep-21 @ 18:55 UTC
Wind
  • 200° at 5 KTS
  • Gusting to 17 KTS
Visibility
10 SM
Flight Rules
VFR
Cloud Levels
  • Overcast at 3,700' AGL
Temperature
26°C / 79°F
Dewpoint
22°C / 72°F
Humidity
79%
Altimeter
30.06" Hg
Pressure
1017.92 hPa